Liverpool Express — DDSD2 — position and weather

sailwx.info

Track history (hours):
 
Tides and Currents Weather Stations Pressure Air Temp Water Temp Dewpoint Dewpoint Depression Visibility Wind Speed Wind Dir Waves Ship Positions

Liverpool Express

Last reported at 2014-Nov-24 06:00 UTC. Time now 2014-Nov-24 08:19 UTC.
Position N 34°18' W 035°06'.

Length 281 m; draft 11.6 m.

Type: Ship. MMSI: 218025000.

Wind from 030 at 21 knots

Barometer 1027.0 mb
Air temperature 18.5 ° C
Visibility: greater than 5.4 NM
Dewpoint 14.6 ° C
Water temperature 21.7 ° C

Date/timePositionNaut miles runAvg speedWind from/ knotsBaromVisibWave heightAir tempDewpointWater temp
2014-Nov-24 06:00N 34°18' W 035°06'10517.6 030 / 211027.0 5.4 18.514.621.7
2014-Nov-24 00:00N 35°06' W 033°12'21517.9 040 / 171027.010.8 18.012.122.1
2014-Nov-23 12:00N 36°48' W 029°18'915.8 200 / 221022.010.8 19.015.919.3
2014-Nov-23 11:26N 36°54' W 029°10'1517.0
2014-Nov-23 10:33N 37°01' W 028°53'1716.9
2014-Nov-23 09:33N 37°09' W 028°34'1716.8
2014-Nov-23 08:33N 37°16' W 028°16'1716.8
2014-Nov-23 07:33N 37°24' W 027°57'1717.0
2014-Nov-23 06:33N 37°32' W 027°38'1220.8
2014-Nov-23 06:00N 37°36' W 027°24'612.9 190 / 241023.010.8 15.5 8.918.3
2014-Nov-23 05:34N 37°40' W 027°19'1717.3
2014-Nov-23 04:33N 37°48' W 026°59'1817.6
2014-Nov-23 03:34N 37°56' W 026°40'1817.7
2014-Nov-23 02:33N 38°05' W 026°21'1818.0
2014-Nov-23 01:33N 38°16' W 026°02'1818.1
2014-Nov-23 00:33N 38°26' W 025°43'1119.4
2014-Nov-23 00:00N 38°30' W 025°30'817.7 050 / 71026.027.0 14.5 4.717.9
2014-Nov-22 23:34N 38°36' W 025°25'1817.8
2014-Nov-22 22:34N 38°47' W 025°06'1818.1
2014-Nov-22 21:33N 38°57' W 024°47'1818.2
2014-Nov-22 20:33N 39°08' W 024°28'1818.2
2014-Nov-22 19:33N 39°19' W 024°09'2218.2
2014-Nov-22 18:21N 39°31' W 023°46'11518.0
2014-Nov-22 12:00N 40°36' W 021°42'21217.7 360 / 281025.510.8 14.5 4.716.7
2014-Nov-22 00:00N 42°36' W 017°48'21818.2 360 / 171016.010.8 13.010.316.1
2014-Nov-21 12:00N 44°42' W 013°42'52917.7 270 / 171010.010.8 15.511.215.5
2014-Nov-20 06:03N 49°54' W 003°12'918.5
2014-Nov-20 05:33N 49°59' W 003°00'6117.5
2014-Nov-20 02:05N 50°15' W 001°29'1620.1
2014-Nov-20 01:17N 50°19' W 001°04'1820.5
2014-Nov-20 00:23N 50°24' W 000°37'1719.9
2014-Nov-19 23:33N 50°29' W 000°12'1919.1
2014-Nov-19 22:33N 50°35' E 000°17'1818.0
2014-Nov-19 21:34N 50°41' E 000°43'1717.3
2014-Nov-19 20:34N 50°51' E 001°05'1717.5
2014-Nov-19 19:34N 51°03' E 001°26'1919.0
2014-Nov-19 18:34N 51°16' E 001°48'1515.4
2014-Nov-19 17:33N 51°22' E 002°11'2017.7
2014-Nov-19 16:26N 51°22' E 002°43'1213.5
2014-Nov-19 15:33N 51°24' E 003°02'1818.4
2014-Nov-19 14:34N 51°25' E 003°31'1110.6
2014-Nov-19 13:34N 51°22' E 003°46'1010.1
2014-Nov-19 12:34N 51°24' E 004°02'10 9.9
2014-Nov-19 11:34N 51°20' E 004°16'3 2.2
2014-Nov-19 10:25N 51°17' E 004°16'0 0.0
2014-Nov-19 09:28N 51°17' E 004°16'0 0.0
2014-Nov-19 08:32N 51°17' E 004°16'0 0.0
2014-Nov-19 07:33N 51°17' E 004°16'0 0.0
2014-Nov-19 06:33N 51°17' E 004°16'0 0.0
2014-Nov-19 05:33N 51°17' E 004°16'0 0.0
2014-Nov-19 04:33N 51°17' E 004°16'0 0.0
2014-Nov-19 03:33N 51°17' E 004°16'0 0.0
2014-Nov-19 02:33N 51°17' E 004°16'0 0.0
2014-Nov-19 01:33N 51°17' E 004°16'0 0.0
2014-Nov-19 00:33N 51°17' E 004°16'0 0.0
2014-Nov-18 23:33N 51°17' E 004°16'0 0.0
2014-Nov-18 22:33N 51°17' E 004°16'0 0.0
2014-Nov-18 21:33N 51°17' E 004°16'0 0.0
2014-Nov-18 20:33N 51°17' E 004°16'0 0.0
2014-Nov-18 19:33N 51°17' E 004°16'1 0.9
2014-Nov-18 18:34N 51°18' E 004°16'9 8.7
2014-Nov-18 17:34N 51°22' E 004°04'8 7.6
2014-Nov-18 16:34N 51°21' E 003°52'1111.3
2014-Nov-18 15:33N 51°26' E 003°36'1212.3
2014-Nov-18 14:33N 51°25' E 003°16'1414.3
2014-Nov-18 13:34N 51°25' E 002°53'1110.8
2014-Nov-18 12:33N 51°22' E 002°37'2 1.9
2014-Nov-18 11:34N 51°22' E 002°34'9 6.7
2014-Nov-18 10:18N 51°19' E 002°20'6 8.6
2014-Nov-18 09:33N 51°19' E 002°10'8 8.5
2014-Nov-18 08:34N 51°24' E 001°59'8 8.1
2014-Nov-18 07:34N 51°31' E 001°52'8 7.9
2014-Nov-18 06:34N 51°38' E 001°46'9 8.9
2014-Nov-18 05:34N 51°46' E 001°44'7 7.2
2014-Nov-18 04:34N 51°51' E 001°35'1413.5
2014-Nov-18 03:34N 51°39' E 001°24'1716.5
2014-Nov-18 02:33N 51°30' E 001°02'1716.8
2014-Nov-18 01:33N 51°30' E 000°35'3 3.1
2014-Nov-18 00:33N 51°30' E 000°30'0 0.0
2014-Nov-17 23:34N 51°30' E 000°30'0 0.0
2014-Nov-17 22:28N 51°30' E 000°30'0 0.0
2014-Nov-17 21:33N 51°30' E 000°30'0 0.0
2014-Nov-17 20:31N 51°30' E 000°30'0 0.0
2014-Nov-17 19:33N 51°30' E 000°30'0 0.0
2014-Nov-17 18:33N 51°30' E 000°30'0 0.0
2014-Nov-17 17:33N 51°30' E 000°30'0 0.0
2014-Nov-17 16:34N 51°30' E 000°30'0 0.0
2014-Nov-17 15:33N 51°30' E 000°30'0 0.0
2014-Nov-17 14:33N 51°30' E 000°30'0 0.0
2014-Nov-17 13:33N 51°30' E 000°30'0 0.0
2014-Nov-17 12:31N 51°30' E 000°30'0 0.0
2014-Nov-17 11:33N 51°30' E 000°30'0 0.0
2014-Nov-17 10:34N 51°30' E 000°30'0 0.0
2014-Nov-17 09:32N 51°30' E 000°30'0 0.0
2014-Nov-17 08:32N 51°30' E 000°30'0 0.0
2014-Nov-17 07:32N 51°30' E 000°30'0 0.0
2014-Nov-17 06:33N 51°30' E 000°30'2 2.0
2014-Nov-17 05:33N 51°30' E 000°33'1313.3
2014-Nov-17 04:33N 51°29' E 000°55'1515.4
2014-Nov-17 03:33N 51°36' E 001°17'1616.3
2014-Nov-17 02:34N 51°48' E 001°33'8 7.9
2014-Nov-17 01:33N 51°51' E 001°45'7 6.9
2014-Nov-17 00:33N 51°51' E 001°56'7 7.3
2014-Nov-16 23:33N 51°54' E 002°07'12610.5
2014-Nov-16 11:31N 53°23' E 004°34'1010.0
2014-Nov-16 10:31N 53°31' E 004°45'1010.7
2014-Nov-16 09:33N 53°35' E 005°01'1111.1
2014-Nov-16 08:33N 53°38' E 005°19'1111.2
2014-Nov-16 07:33N 53°42' E 005°37'1111.4
2014-Nov-16 06:33N 53°45' E 005°55'1211.9
2014-Nov-16 05:33N 53°49' E 006°14'1311.3
2014-Nov-16 04:25N 53°51' E 006°36'3211.1
2014-Nov-16 01:29N 53°60' E 007°29'1010.6
2014-Nov-16 00:33N 54°02' E 007°45'1110.9
2014-Nov-15 23:34N 54°01' E 008°04'1312.7
2014-Nov-15 22:34N 53°59' E 008°25'1616.2
2014-Nov-15 21:33N 53°50' E 008°48'1514.7
2014-Nov-15 20:33N 53°53' E 009°13'1313.4
2014-Nov-15 19:33N 53°43' E 009°29'1110.5
2014-Nov-15 18:33N 53°34' E 009°39'8 8.4
2014-Nov-15 17:33N 53°33' E 009°53'2 1.6
2014-Nov-15 16:31N 53°32' E 009°55'0 0.0
2014-Nov-15 15:31N 53°32' E 009°55'0 0.0
2014-Nov-15 14:31N 53°32' E 009°55'0 0.0
2014-Nov-15 13:32N 53°32' E 009°55'0 0.0
2014-Nov-15 12:33N 53°32' E 009°55'0 0.0
2014-Nov-15 11:28N 53°32' E 009°55'0 0.0
2014-Nov-15 10:33N 53°32' E 009°55'0 0.0
2014-Nov-15 09:33N 53°32' E 009°55'0 0.0
2014-Nov-15 08:32N 53°32' E 009°55'0 0.0
2014-Nov-15 07:33N 53°32' E 009°55'0 0.0
2014-Nov-15 06:31N 53°32' E 009°55'0 0.0
2014-Nov-15 05:34N 53°32' E 009°55'0 0.0
2014-Nov-15 04:33N 53°32' E 009°55'0 0.0
2014-Nov-15 03:32N 53°32' E 009°55'0 0.0
2014-Nov-15 02:33N 53°32' E 009°55'0 0.0
2014-Nov-15 01:33N 53°32' E 009°55'0 0.0
2014-Nov-15 00:33N 53°32' E 009°55'0 0.0
2014-Nov-14 23:33N 53°32' E 009°55'0 0.0
2014-Nov-14 22:33N 53°32' E 009°55'0 0.0
2014-Nov-14 21:29N 53°32' E 009°55'0 0.0
2014-Nov-14 20:33N 53°32' E 009°55'0 0.0
2014-Nov-14 19:33N 53°32' E 009°55'0 0.0
2014-Nov-14 18:33N 53°32' E 009°55'0 0.0
2014-Nov-14 17:33N 53°32' E 009°55'0 0.0
2014-Nov-14 16:33N 53°32' E 009°55'0 0.0
2014-Nov-14 15:29N 53°32' E 009°55'0 0.0
2014-Nov-14 14:29N 53°32' E 009°55'11 5.6
2014-Nov-14 12:33N 53°35' E 009°38'1111.1
2014-Nov-14 11:33N 53°44' E 009°27'1212.0
2014-Nov-14 10:34N 53°53' E 009°13'10 9.6
2014-Nov-14 09:33N 53°51' E 008°57'10 9.7
2014-Nov-14 08:33N 53°54' E 008°42'1313.2
2014-Nov-14 07:34N 53°59' E 008°21'1312.6
2014-Nov-14 06:33N 53°59' E 008°00'  
Track history (hours):
 
Tides and Currents Weather Stations Pressure Air Temp Water Temp Dewpoint Dewpoint Depression Visibility Wind Speed Wind Dir Waves Ship Positions

Liverpool Express

Last reported at 2014-Nov-24 06:00 UTC. Time now 2014-Nov-24 08:19 UTC.
Position N 34°18' W 035°06'.

Length 281 m; draft 11.6 m.

Type: Ship. MMSI: 218025000.

Wind from 030 at 21 knots

Barometer 1027.0 mb
Air temperature 18.5 ° C
Visibility: greater than 5.4 NM
Dewpoint 14.6 ° C
Water temperature 21.7 ° C

Date/timePositionNaut miles runAvg speedWind from/ knotsBaromVisibWave heightAir tempDewpointWater temp
2014-Nov-24 06:00N 34°18' W 035°06'10517.6 030 / 211027.0 5.4 18.514.621.7
2014-Nov-24 00:00N 35°06' W 033°12'21517.9 040 / 171027.010.8 18.012.122.1
2014-Nov-23 12:00N 36°48' W 029°18'915.8 200 / 221022.010.8 19.015.919.3
2014-Nov-23 11:26N 36°54' W 029°10'1517.0
2014-Nov-23 10:33N 37°01' W 028°53'1716.9
2014-Nov-23 09:33N 37°09' W 028°34'1716.8
2014-Nov-23 08:33N 37°16' W 028°16'1716.8
2014-Nov-23 07:33N 37°24' W 027°57'1717.0
2014-Nov-23 06:33N 37°32' W 027°38'1220.8
2014-Nov-23 06:00N 37°36' W 027°24'612.9 190 / 241023.010.8 15.5 8.918.3
2014-Nov-23 05:34N 37°40' W 027°19'1717.3
2014-Nov-23 04:33N 37°48' W 026°59'1817.6
2014-Nov-23 03:34N 37°56' W 026°40'1817.7
2014-Nov-23 02:33N 38°05' W 026°21'1818.0
2014-Nov-23 01:33N 38°16' W 026°02'1818.1
2014-Nov-23 00:33N 38°26' W 025°43'1119.4
2014-Nov-23 00:00N 38°30' W 025°30'817.7 050 / 71026.027.0 14.5 4.717.9
2014-Nov-22 23:34N 38°36' W 025°25'1817.8
2014-Nov-22 22:34N 38°47' W 025°06'1818.1
2014-Nov-22 21:33N 38°57' W 024°47'1818.2
2014-Nov-22 20:33N 39°08' W 024°28'1818.2
2014-Nov-22 19:33N 39°19' W 024°09'2218.2
2014-Nov-22 18:21N 39°31' W 023°46'11518.0
2014-Nov-22 12:00N 40°36' W 021°42'21217.7 360 / 281025.510.8 14.5 4.716.7
2014-Nov-22 00:00N 42°36' W 017°48'21818.2 360 / 171016.010.8 13.010.316.1
2014-Nov-21 12:00N 44°42' W 013°42'52917.7 270 / 171010.010.8 15.511.215.5
2014-Nov-20 06:03N 49°54' W 003°12'918.5
2014-Nov-20 05:33N 49°59' W 003°00'6117.5
2014-Nov-20 02:05N 50°15' W 001°29'1620.1
2014-Nov-20 01:17N 50°19' W 001°04'1820.5
2014-Nov-20 00:23N 50°24' W 000°37'1719.9
2014-Nov-19 23:33N 50°29' W 000°12'1919.1
2014-Nov-19 22:33N 50°35' E 000°17'1818.0
2014-Nov-19 21:34N 50°41' E 000°43'1717.3
2014-Nov-19 20:34N 50°51' E 001°05'1717.5
2014-Nov-19 19:34N 51°03' E 001°26'1919.0
2014-Nov-19 18:34N 51°16' E 001°48'1515.4
2014-Nov-19 17:33N 51°22' E 002°11'2017.7
2014-Nov-19 16:26N 51°22' E 002°43'1213.5
2014-Nov-19 15:33N 51°24' E 003°02'1818.4
2014-Nov-19 14:34N 51°25' E 003°31'1110.6
2014-Nov-19 13:34N 51°22' E 003°46'1010.1
2014-Nov-19 12:34N 51°24' E 004°02'10 9.9
2014-Nov-19 11:34N 51°20' E 004°16'3 2.2
2014-Nov-19 10:25N 51°17' E 004°16'0 0.0
2014-Nov-19 09:28N 51°17' E 004°16'0 0.0
2014-Nov-19 08:32N 51°17' E 004°16'0 0.0
2014-Nov-19 07:33N 51°17' E 004°16'0 0.0
2014-Nov-19 06:33N 51°17' E 004°16'0 0.0
2014-Nov-19 05:33N 51°17' E 004°16'0 0.0
2014-Nov-19 04:33N 51°17' E 004°16'0 0.0
2014-Nov-19 03:33N 51°17' E 004°16'0 0.0
2014-Nov-19 02:33N 51°17' E 004°16'0 0.0
2014-Nov-19 01:33N 51°17' E 004°16'0 0.0
2014-Nov-19 00:33N 51°17' E 004°16'0 0.0
2014-Nov-18 23:33N 51°17' E 004°16'0 0.0
2014-Nov-18 22:33N 51°17' E 004°16'0 0.0
2014-Nov-18 21:33N 51°17' E 004°16'0 0.0
2014-Nov-18 20:33N 51°17' E 004°16'0 0.0
2014-Nov-18 19:33N 51°17' E 004°16'1 0.9
2014-Nov-18 18:34N 51°18' E 004°16'9 8.7
2014-Nov-18 17:34N 51°22' E 004°04'8 7.6
2014-Nov-18 16:34N 51°21' E 003°52'1111.3
2014-Nov-18 15:33N 51°26' E 003°36'1212.3
2014-Nov-18 14:33N 51°25' E 003°16'1414.3
2014-Nov-18 13:34N 51°25' E 002°53'1110.8
2014-Nov-18 12:33N 51°22' E 002°37'2 1.9
2014-Nov-18 11:34N 51°22' E 002°34'9 6.7
2014-Nov-18 10:18N 51°19' E 002°20'6 8.6
2014-Nov-18 09:33N 51°19' E 002°10'8 8.5
2014-Nov-18 08:34N 51°24' E 001°59'8 8.1
2014-Nov-18 07:34N 51°31' E 001°52'8 7.9
2014-Nov-18 06:34N 51°38' E 001°46'9 8.9
2014-Nov-18 05:34N 51°46' E 001°44'7 7.2
2014-Nov-18 04:34N 51°51' E 001°35'1413.5
2014-Nov-18 03:34N 51°39' E 001°24'1716.5
2014-Nov-18 02:33N 51°30' E 001°02'1716.8
2014-Nov-18 01:33N 51°30' E 000°35'3 3.1
2014-Nov-18 00:33N 51°30' E 000°30'0 0.0
2014-Nov-17 23:34N 51°30' E 000°30'0 0.0
2014-Nov-17 22:28N 51°30' E 000°30'0 0.0
2014-Nov-17 21:33N 51°30' E 000°30'0 0.0
2014-Nov-17 20:31N 51°30' E 000°30'0 0.0
2014-Nov-17 19:33N 51°30' E 000°30'0 0.0
2014-Nov-17 18:33N 51°30' E 000°30'0 0.0
2014-Nov-17 17:33N 51°30' E 000°30'0 0.0
2014-Nov-17 16:34N 51°30' E 000°30'0 0.0
2014-Nov-17 15:33N 51°30' E 000°30'0 0.0
2014-Nov-17 14:33N 51°30' E 000°30'0 0.0
2014-Nov-17 13:33N 51°30' E 000°30'0 0.0
2014-Nov-17 12:31N 51°30' E 000°30'0 0.0
2014-Nov-17 11:33N 51°30' E 000°30'0 0.0
2014-Nov-17 10:34N 51°30' E 000°30'0 0.0
2014-Nov-17 09:32N 51°30' E 000°30'0 0.0
2014-Nov-17 08:32N 51°30' E 000°30'0 0.0
2014-Nov-17 07:32N 51°30' E 000°30'0 0.0
2014-Nov-17 06:33N 51°30' E 000°30'2 2.0
2014-Nov-17 05:33N 51°30' E 000°33'1313.3
2014-Nov-17 04:33N 51°29' E 000°55'1515.4
2014-Nov-17 03:33N 51°36' E 001°17'1616.3
2014-Nov-17 02:34N 51°48' E 001°33'8 7.9
2014-Nov-17 01:33N 51°51' E 001°45'7 6.9
2014-Nov-17 00:33N 51°51' E 001°56'7 7.3
2014-Nov-16 23:33N 51°54' E 002°07'12610.5
2014-Nov-16 11:31N 53°23' E 004°34'1010.0
2014-Nov-16 10:31N 53°31' E 004°45'1010.7
2014-Nov-16 09:33N 53°35' E 005°01'1111.1
2014-Nov-16 08:33N 53°38' E 005°19'1111.2
2014-Nov-16 07:33N 53°42' E 005°37'1111.4
2014-Nov-16 06:33N 53°45' E 005°55'1211.9
2014-Nov-16 05:33N 53°49' E 006°14'1311.3
2014-Nov-16 04:25N 53°51' E 006°36'3211.1
2014-Nov-16 01:29N 53°60' E 007°29'1010.6
2014-Nov-16 00:33N 54°02' E 007°45'1110.9
2014-Nov-15 23:34N 54°01' E 008°04'1312.7
2014-Nov-15 22:34N 53°59' E 008°25'1616.2
2014-Nov-15 21:33N 53°50' E 008°48'1514.7
2014-Nov-15 20:33N 53°53' E 009°13'1313.4
2014-Nov-15 19:33N 53°43' E 009°29'1110.5
2014-Nov-15 18:33N 53°34' E 009°39'8 8.4
2014-Nov-15 17:33N 53°33' E 009°53'2 1.6
2014-Nov-15 16:31N 53°32' E 009°55'0 0.0
2014-Nov-15 15:31N 53°32' E 009°55'0 0.0
2014-Nov-15 14:31N 53°32' E 009°55'0 0.0
2014-Nov-15 13:32N 53°32' E 009°55'0 0.0
2014-Nov-15 12:33N 53°32' E 009°55'0 0.0
2014-Nov-15 11:28N 53°32' E 009°55'0 0.0
2014-Nov-15 10:33N 53°32' E 009°55'0 0.0
2014-Nov-15 09:33N 53°32' E 009°55'0 0.0
2014-Nov-15 08:32N 53°32' E 009°55'0 0.0
2014-Nov-15 07:33N 53°32' E 009°55'0 0.0
2014-Nov-15 06:31N 53°32' E 009°55'0 0.0
2014-Nov-15 05:34N 53°32' E 009°55'0 0.0
2014-Nov-15 04:33N 53°32' E 009°55'0 0.0
2014-Nov-15 03:32N 53°32' E 009°55'0 0.0
2014-Nov-15 02:33N 53°32' E 009°55'0 0.0
2014-Nov-15 01:33N 53°32' E 009°55'0 0.0
2014-Nov-15 00:33N 53°32' E 009°55'0 0.0
2014-Nov-14 23:33N 53°32' E 009°55'0 0.0
2014-Nov-14 22:33N 53°32' E 009°55'0 0.0
2014-Nov-14 21:29N 53°32' E 009°55'0 0.0
2014-Nov-14 20:33N 53°32' E 009°55'0 0.0
2014-Nov-14 19:33N 53°32' E 009°55'0 0.0
2014-Nov-14 18:33N 53°32' E 009°55'0 0.0
2014-Nov-14 17:33N 53°32' E 009°55'0 0.0
2014-Nov-14 16:33N 53°32' E 009°55'0 0.0
2014-Nov-14 15:29N 53°32' E 009°55'0 0.0
2014-Nov-14 14:29N 53°32' E 009°55'11 5.6
2014-Nov-14 12:33N 53°35' E 009°38'1111.1
2014-Nov-14 11:33N 53°44' E 009°27'1212.0
2014-Nov-14 10:34N 53°53' E 009°13'10 9.6
2014-Nov-14 09:33N 53°51' E 008°57'10 9.7
2014-Nov-14 08:33N 53°54' E 008°42'1313.2
2014-Nov-14 07:34N 53°59' E 008°21'1312.6
2014-Nov-14 06:33N 53°59' E 008°00'  

Dump ship's entire track history